Time;durP1;ratioP1;P1;durP2;ratioP2;P2;SDS_P1;SDS_P2;PMS_P1;PMS_P2;Temp;Humidity;BMP_temperature;BMP_pressure;BME280_temperature;BME280_humidity;BME280_pressure;Samples;Min_cycle;Max_cycle;Signal;HPM_P1;HPM_P2
2023/09/22 00:01:02;;;;;;;0.10;0.10;;;;;;;11.46;100.00;99712.22;5115708;28;20422;-41
2023/09/22 00:03:31;;;;;;;0.20;0.20;;;;;;;11.44;100.00;99719.13;5115317;28;20455;-45
2023/09/22 00:05:57;;;;;;;0.10;0.10;;;;;;;11.38;100.00;99719.06;5114832;28;20383;-45
2023/09/22 00:08:22;;;;;;;0.20;0.20;;;;;;;11.34;100.00;99709.56;5115488;28;20020;-43
2023/09/22 00:10:47;;;;;;;0.10;0.10;;;;;;;11.30;100.00;99710.41;5115630;28;20450;-42
2023/09/22 00:13:13;;;;;;;0.10;0.10;;;;;;;11.27;100.00;99712.94;5114541;28;20503;-44
2023/09/22 00:15:39;;;;;;;0.10;0.10;;;;;;;11.22;100.00;99720.66;5115597;28;20024;-45
2023/09/22 00:18:05;;;;;;;0.17;0.17;;;;;;;11.18;100.00;99716.28;5115403;28;20352;-46
2023/09/22 00:20:30;;;;;;;0.20;0.20;;;;;;;11.16;100.00;99713.72;5114542;28;20102;-44
2023/09/22 00:22:55;;;;;;;0.20;0.20;;;;;;;11.10;100.00;99717.94;5115012;28;20428;-45
2023/09/22 00:25:22;;;;;;;0.10;0.10;;;;;;;11.10;100.00;99715.38;5114777;28;20030;-44
2023/09/22 00:27:47;;;;;;;0.20;0.20;;;;;;;11.08;100.00;99712.78;5114438;28;20069;-42
2023/09/22 00:30:13;;;;;;;0.20;0.20;;;;;;;11.06;100.00;99709.31;5114852;28;20044;-42
2023/09/22 00:32:39;;;;;;;0.10;0.10;;;;;;;11.03;100.00;99712.72;5114639;28;20031;-44
2023/09/22 00:35:06;;;;;;;0.10;0.10;;;;;;;11.01;100.00;99719.59;5115127;28;20048;-44
2023/09/22 00:37:31;;;;;;;0.13;0.13;;;;;;;10.96;100.00;99723.84;5114798;28;20035;-44
2023/09/22 00:39:57;;;;;;;0.20;0.20;;;;;;;10.95;100.00;99734.13;5114319;28;20031;-46
2023/09/22 00:42:22;;;;;;;0.20;0.20;;;;;;;10.92;100.00;99734.09;5114708;28;20020;-44
2023/09/22 00:44:48;;;;;;;0.10;0.10;;;;;;;10.87;100.00;99737.50;5114894;28;20050;-46
2023/09/22 00:47:14;;;;;;;0.20;0.20;;;;;;;10.90;100.00;99733.22;5113816;28;20082;-45
2023/09/22 00:49:45;;;;;;;0.20;0.20;;;;;;;10.82;100.00;99728.84;5115038;28;20032;-44
2023/09/22 00:52:12;;;;;;;0.10;0.10;;;;;;;10.79;100.00;99728.81;5114750;28;20020;-43
2023/09/22 00:54:38;;;;;;;0.15;0.15;;;;;;;10.73;100.00;99727.88;5114050;28;20032;-42
2023/09/22 00:57:04;;;;;;;0.13;0.13;;;;;;;10.74;100.00;99716.72;5114457;28;20047;-46
2023/09/22 00:59:31;;;;;;;0.15;0.15;;;;;;;10.76;100.00;99704.75;5114237;28;20482;-46
2023/09/22 01:01:57;;;;;;;0.20;0.20;;;;;;;10.69;100.00;99703.78;5114059;28;20024;-44
2023/09/22 01:04:22;;;;;;;0.10;0.10;;;;;;;10.73;100.00;99703.00;5114379;28;20019;-46
2023/09/22 01:06:47;;;;;;;0.20;0.20;;;;;;;10.70;100.00;99715.84;5114617;28;20023;-44
2023/09/22 01:09:15;;;;;;;0.20;0.20;;;;;;;10.63;100.00;99714.06;5113425;28;20390;-46
2023/09/22 01:11:41;;;;;;;0.10;0.10;;;;;;;10.60;100.00;99726.88;5114286;28;20463;-46
2023/09/22 01:14:07;;;;;;;0.20;0.20;;;;;;;10.60;100.00;99732.03;5114241;28;20031;-46
2023/09/22 01:16:32;;;;;;;0.20;0.20;;;;;;;10.56;100.00;99720.84;5113126;28;20031;-43
2023/09/22 01:18:58;;;;;;;0.20;0.20;;;;;;;10.56;100.00;99707.09;5114257;28;20042;-45
2023/09/22 01:21:28;;;;;;;0.20;0.20;;;;;;;10.52;100.00;99719.94;5113982;28;20074;-43
2023/09/22 01:23:53;;;;;;;0.10;0.10;;;;;;;10.51;100.00;99718.22;5113448;28;20352;-44
2023/09/22 01:26:18;;;;;;;0.20;0.20;;;;;;;10.53;100.00;99724.25;5113930;28;20038;-46
2023/09/22 01:28:44;;;;;;;0.17;0.17;;;;;;;10.46;100.00;99719.88;5114025;28;20058;-45
2023/09/22 01:31:10;;;;;;;0.20;0.20;;;;;;;10.46;100.00;99722.44;5113441;28;20371;-45
2023/09/22 01:33:36;;;;;;;0.20;0.20;;;;;;;10.43;100.00;99712.13;5113676;28;20463;-46
2023/09/22 01:36:01;;;;;;;0.20;0.20;;;;;;;10.42;100.00;99707.81;5112257;28;20020;-46
2023/09/22 01:38:27;;;;;;;0.20;0.20;;;;;;;10.39;100.00;99705.19;5113776;28;20452;-47
2023/09/22 01:40:53;;;;;;;0.20;0.20;;;;;;;10.36;100.00;99707.72;5113889;28;20023;-46
2023/09/22 01:43:18;;;;;;;0.20;0.20;;;;;;;10.36;100.00;99697.44;5112555;28;20031;-42
2023/09/22 01:45:44;;;;;;;0.20;0.20;;;;;;;10.35;100.00;99699.16;5113948;28;20024;-45
2023/09/22 01:48:09;;;;;;;0.20;0.20;;;;;;;10.32;100.00;99700.78;5113939;28;20409;-42
2023/09/22 01:50:37;;;;;;;0.20;0.20;;;;;;;10.32;100.00;99703.38;5112655;28;20027;-46
2023/09/22 01:53:04;;;;;;;0.20;0.20;;;;;;;10.34;100.00;99704.22;5113628;28;20024;-44
2023/09/22 01:55:29;;;;;;;0.20;0.20;;;;;;;10.38;100.00;99706.06;5113284;28;20051;-42
2023/09/22 01:57:55;;;;;;;0.20;0.20;;;;;;;10.40;100.00;99714.63;5112739;28;20101;-45
2023/09/22 02:00:20;;;;;;;0.10;0.10;;;;;;;10.44;100.00;99720.69;5113437;28;20015;-44
2023/09/22 02:02:46;;;;;;;0.20;0.20;;;;;;;10.49;100.00;99716.47;5113425;28;20114;-45
2023/09/22 02:05:14;;;;;;;0.13;0.13;;;;;;;10.47;100.00;99711.31;5112856;28;20481;-41
2023/09/22 02:07:39;;;;;;;0.20;0.20;;;;;;;10.48;100.00;99709.56;5113475;28;20028;-42
2023/09/22 02:10:05;;;;;;;0.20;0.20;;;;;;;10.45;100.00;99710.41;5113474;28;20026;-45
2023/09/22 02:12:31;;;;;;;0.20;0.20;;;;;;;10.44;100.00;99715.56;5112149;28;20023;-43
2023/09/22 02:14:57;;;;;;;0.20;0.20;;;;;;;10.41;100.00;99702.66;5113583;28;20050;-45
2023/09/22 02:17:22;;;;;;;0.20;0.20;;;;;;;10.41;100.00;99706.06;5113236;28;20073;-45
2023/09/22 02:19:48;;;;;;;0.20;0.20;;;;;;;10.43;100.00;99712.13;5112328;28;20051;-44
2023/09/22 02:22:13;;;;;;;0.20;0.20;;;;;;;10.46;100.00;99706.13;5112975;28;20541;-42
2023/09/22 02:24:39;;;;;;;0.20;0.20;;;;;;;10.47;100.00;99711.31;5113390;28;20103;-45
2023/09/22 02:27:04;;;;;;;0.20;0.20;;;;;;;10.53;100.00;99711.38;5112507;28;20024;-45
2023/09/22 02:29:30;;;;;;;0.20;0.20;;;;;;;10.52;100.00;99714.81;5112921;28;20024;-46
2023/09/22 02:31:55;;;;;;;0.20;0.20;;;;;;;10.54;100.00;99722.53;5113362;28;20095;-45
2023/09/22 02:34:20;;;;;;;0.20;0.20;;;;;;;10.54;100.00;99718.25;5112126;28;20034;-45
2023/09/22 02:36:47;;;;;;;0.10;0.10;;;;;;;10.62;100.00;99722.63;5113226;28;20105;-46
2023/09/22 02:39:12;;;;;;;0.20;0.20;;;;;;;10.61;100.00;99715.75;5111950;28;20466;-43
2023/09/22 02:41:38;;;;;;;0.20;0.20;;;;;;;10.67;100.00;99713.22;5113102;28;20059;-46
2023/09/22 02:44:06;;;;;;;0.20;0.20;;;;;;;10.71;100.00;99709.84;5113345;28;20020;-44
2023/09/22 02:46:32;;;;;;;0.20;0.20;;;;;;;10.67;100.00;99705.50;5112838;28;20027;-45
2023/09/22 02:48:57;;;;;;;0.20;0.20;;;;;;;10.69;100.00;99711.50;5117141;28;20023;-43
2023/09/22 02:51:22;;;;;;;0.20;0.20;;;;;;;10.69;100.00;99711.50;5116712;28;20023;-45
2023/09/22 02:53:50;;;;;;;0.20;0.20;;;;;;;10.71;100.00;99709.84;5116291;28;20107;-45
2023/09/22 02:56:15;;;;;;;;;;;;;;;10.81;100.00;99715.97;5116897;28;20113;-44
2023/09/22 02:58:41;;;;;;;0.20;0.20;;;;;;;10.77;100.00;99719.34;5117090;28;19955;-45
2023/09/22 03:01:08;;;;;;;0.20;0.20;;;;;;;10.73;100.00;99709.84;5116068;28;20032;-43
2023/09/22 03:03:35;;;;;;;0.20;0.20;;;;;;;10.74;100.00;99706.44;5116822;28;20038;-45
2023/09/22 03:06:00;;;;;;;0.20;0.20;;;;;;;10.73;100.00;99707.28;5116942;28;20046;-44
2023/09/22 03:08:26;;;;;;;0.20;0.20;;;;;;;10.76;100.00;99713.31;5115748;28;20383;-43
2023/09/22 03:10:51;;;;;;;0.20;0.20;;;;;;;10.76;100.00;99713.31;5116757;28;20103;-45
2023/09/22 03:13:16;;;;;;;0.20;0.20;;;;;;;10.78;100.00;99710.75;5116661;28;20055;-43
2023/09/22 03:15:41;;;;;;;0.20;0.20;;;;;;;10.80;100.00;99709.06;5116523;28;20027;-47
2023/09/22 03:18:07;;;;;;;0.20;0.20;;;;;;;10.81;100.00;99716.81;5116669;28;20492;-43
2023/09/22 03:20:32;;;;;;;0.20;0.20;;;;;;;10.84;100.00;99722.00;5116280;28;20020;-45
2023/09/22 03:22:57;;;;;;;0.22;0.22;;;;;;;10.83;100.00;99720.28;5115738;28;20024;-44
2023/09/22 03:25:23;;;;;;;0.17;0.17;;;;;;;10.83;100.00;99717.72;5116059;28;20016;-42
2023/09/22 03:27:48;;;;;;;0.20;0.20;;;;;;;10.84;100.00;99722.00;5116673;28;20024;-44
2023/09/22 03:30:15;;;;;;;0.20;0.20;;;;;;;10.83;100.00;99714.25;5115417;28;20382;-45
2023/09/22 03:32:40;;;;;;;0.28;0.28;;;;;;;10.85;100.00;99707.41;5116625;28;20054;-43
2023/09/22 03:35:07;;;;;;;0.20;0.20;;;;;;;10.86;100.00;99715.16;5116442;28;20047;-46
2023/09/22 03:37:36;;;;;;;0.20;0.20;;;;;;;10.89;100.00;99708.31;5115211;28;20026;-41
2023/09/22 03:40:10;;;;;;;0.20;0.20;;;;;;;10.91;100.00;99716.91;5116342;28;20042;-45
2023/09/22 03:42:35;;;;;;;0.20;0.20;;;;;;;10.92;100.00;99718.63;5115085;28;20352;-45
2023/09/22 03:45:01;;;;;;;0.20;0.20;;;;;;;10.93;100.00;99720.38;5116222;28;20489;-45
2023/09/22 03:47:27;;;;;;;0.20;0.20;;;;;;;10.95;100.00;99721.22;5115848;28;20038;-45
2023/09/22 03:49:52;;;;;;;0.10;0.10;;;;;;;10.98;100.00;99718.72;5115176;28;20028;-46
2023/09/22 03:52:17;;;;;;;0.20;0.20;;;;;;;11.00;100.00;99722.16;5115587;28;20023;-45
2023/09/22 03:54:43;;;;;;;0.10;0.10;;;;;;;11.01;100.00;99724.75;5116094;28;20161;-43
2023/09/22 03:57:09;;;;;;;0.13;0.13;;;;;;;11.03;100.00;99717.03;5115052;28;20035;-45
2023/09/22 03:59:34;;;;;;;0.20;0.20;;;;;;;11.04;100.00;99721.34;5114649;28;20035;-45
2023/09/22 04:02:00;;;;;;;0.20;0.20;;;;;;;11.04;100.00;99721.34;5115776;28;20027;-43
2023/09/22 04:04:28;;;;;;;0.20;0.20;;;;;;;11.04;100.00;99736.81;5114796;28;20031;-43
2023/09/22 04:06:53;;;;;;;0.20;0.20;;;;;;;11.03;100.00;99728.19;5115744;28;20026;-45
2023/09/22 04:09:19;;;;;;;0.20;0.20;;;;;;;11.04;100.00;99729.09;5115235;28;20032;-44
2023/09/22 04:11:44;;;;;;;0.20;0.20;;;;;;;11.06;100.00;99731.66;5114947;28;20031;-45
2023/09/22 04:14:10;;;;;;;0.20;0.20;;;;;;;11.04;100.00;99734.25;5115695;28;20020;-45
2023/09/22 04:16:36;;;;;;;0.20;0.20;;;;;;;11.06;100.00;99739.41;5115266;28;20107;-45
2023/09/22 04:19:01;;;;;;;0.20;0.20;;;;;;;11.11;100.00;99741.16;5114676;28;20141;-41
2023/09/22 04:21:26;;;;;;;0.20;0.20;;;;;;;11.14;100.00;99741.22;5115195;28;20019;-47
2023/09/22 04:23:57;;;;;;;0.20;0.20;;;;;;;11.15;100.00;99742.91;5115333;28;20370;-46
2023/09/22 04:26:28;;;;;;;0.20;0.20;;;;;;;11.16;100.00;99748.97;5114410;28;20024;-44
2023/09/22 04:28:55;;;;;;;0.20;0.20;;;;;;;11.16;100.00;99744.66;5115419;28;20028;-46
2023/09/22 04:31:23;;;;;;;0.20;0.20;;;;;;;11.15;100.00;99752.38;5115019;28;20066;-46
2023/09/22 04:33:48;;;;;;;0.20;0.20;;;;;;;11.15;100.00;99748.06;5114365;28;20032;-46
2023/09/22 04:36:13;;;;;;;0.10;0.10;;;;;;;11.14;100.00;99746.38;5114791;28;20038;-46
2023/09/22 04:38:39;;;;;;;0.20;0.20;;;;;;;11.11;100.00;99751.47;5115116;28;20063;-44
2023/09/22 04:41:06;;;;;;;0.20;0.20;;;;;;;11.08;100.00;99746.31;5114835;28;20031;-46
2023/09/22 04:43:32;;;;;;;0.20;0.20;;;;;;;11.07;100.00;99746.31;5114854;28;20046;-43
2023/09/22 04:46:01;;;;;;;0.20;0.20;;;;;;;11.04;100.00;99744.56;5114180;28;20012;-42
2023/09/22 04:48:26;;;;;;;0.20;0.20;;;;;;;11.03;100.00;99742.81;5114651;28;20020;-45
2023/09/22 04:50:54;;;;;;;0.20;0.20;;;;;;;11.01;100.00;99744.50;5115080;28;20027;-42
2023/09/22 04:53:20;;;;;;;0.20;0.20;;;;;;;10.96;100.00;99741.91;5113876;28;20051;-44
2023/09/22 04:55:46;;;;;;;0.20;0.20;;;;;;;10.95;100.00;99749.59;5115261;28;20079;-44
2023/09/22 04:58:14;;;;;;;0.20;0.20;;;;;;;10.94;100.00;99747.88;5114528;28;20111;-45
2023/09/22 05:00:40;;;;;;;0.20;0.20;;;;;;;10.93;100.00;99748.72;5113840;28;20073;-44
2023/09/22 05:03:07;;;;;;;0.20;0.20;;;;;;;10.92;100.00;99739.25;5114538;28;20034;-42
2023/09/22 05:05:33;;;;;;;0.20;0.20;;;;;;;10.90;100.00;99752.13;5114418;28;20019;-43
2023/09/22 05:07:59;;;;;;;0.20;0.20;;;;;;;10.87;100.00;99752.09;5113818;28;20031;-42
2023/09/22 05:10:24;;;;;;;0.20;0.20;;;;;;;10.87;100.00;99757.25;5114048;28;20015;-43
2023/09/22 05:12:51;;;;;;;0.20;0.20;;;;;;;10.86;100.00;99756.41;5114507;28;20379;-41
2023/09/22 05:15:16;;;;;;;0.20;0.20;;;;;;;10.87;100.00;99758.13;5113297;28;20016;-41
2023/09/22 05:17:42;;;;;;;0.20;0.20;;;;;;;10.85;100.00;99767.53;5114128;28;20022;-41
2023/09/22 05:20:13;;;;;;;0.20;0.20;;;;;;;10.82;100.00;99770.09;5114354;28;20077;-43
2023/09/22 05:22:39;;;;;;;0.10;0.10;;;;;;;10.83;100.00;99769.25;5113596;28;20031;-44
2023/09/22 05:25:05;;;;;;;0.20;0.20;;;;;;;10.81;100.00;99772.66;5114290;28;20508;-40
2023/09/22 05:27:30;;;;;;;0.20;0.20;;;;;;;10.82;100.00;99774.38;5113815;28;20502;-41
2023/09/22 05:29:56;;;;;;;0.20;0.20;;;;;;;10.81;100.00;99776.09;5113326;28;20463;-41
2023/09/22 05:32:21;;;;;;;0.20;0.20;;;;;;;10.77;100.00;99774.34;5113566;28;20106;-43
2023/09/22 05:34:46;;;;;;;0.20;0.20;;;;;;;10.80;100.00;99771.78;5113874;28;20502;-40
2023/09/22 05:37:12;;;;;;;0.20;0.20;;;;;;;10.79;100.00;99784.66;5112920;28;20102;-41
2023/09/22 05:39:41;;;;;;;0.20;0.20;;;;;;;10.80;100.00;99788.97;5114281;28;20031;-41
2023/09/22 05:42:06;;;;;;;0.20;0.20;;;;;;;10.76;100.00;99795.78;5113228;28;20020;-41
2023/09/22 05:44:32;;;;;;;0.20;0.20;;;;;;;10.78;100.00;99803.53;5113554;28;20092;-41
2023/09/22 05:46:58;;;;;;;0.20;0.20;;;;;;;10.79;100.00;99800.97;5113691;28;20036;-41
2023/09/22 05:49:23;;;;;;;0.20;0.20;;;;;;;10.71;100.00;99800.03;5112559;28;20027;-41
2023/09/22 05:51:49;;;;;;;0.20;0.20;;;;;;;10.76;100.00;99800.94;5113099;28;20042;-42
2023/09/22 05:54:14;;;;;;;0.20;0.20;;;;;;;10.75;100.00;99809.53;5113465;28;20024;-41
2023/09/22 05:56:40;;;;;;;0.20;0.20;;;;;;;10.75;100.00;99809.53;5112552;28;20070;-42
2023/09/22 05:59:08;;;;;;;0.20;0.20;;;;;;;10.74;100.00;99805.22;5113567;28;20096;-41
2023/09/22 06:01:37;;;;;;;0.20;0.20;;;;;;;10.74;100.00;99806.94;5113199;28;20030;-42
2023/09/22 06:04:05;;;;;;;0.20;0.20;;;;;;;10.74;100.00;99807.78;5112772;28;20482;-46
2023/09/22 06:06:34;;;;;;;0.20;0.20;;;;;;;10.74;100.00;99810.38;5113037;28;20520;-43
2023/09/22 06:09:03;;;;;;;0.20;0.20;;;;;;;10.73;100.00;99826.69;5113458;28;20028;-44
2023/09/22 06:11:29;;;;;;;0.20;0.20;;;;;;;10.72;100.00;99830.13;5112216;28;20499;-46
2023/09/22 06:13:54;;;;;;;0.20;0.20;;;;;;;10.75;100.00;99816.41;5113367;28;20099;-43
2023/09/22 06:16:19;;;;;;;0.20;0.20;;;;;;;10.77;100.00;99817.28;5112876;28;20141;-43
2023/09/22 06:18:45;;;;;;;0.20;0.20;;;;;;;10.81;100.00;99830.22;5112491;28;20032;-44
2023/09/22 06:21:11;;;;;;;0.20;0.20;;;;;;;10.87;100.00;99830.31;5112797;28;20477;-42
2023/09/22 06:23:36;;;;;;;0.20;0.20;;;;;;;10.87;100.00;99825.16;5113224;28;20023;-42
2023/09/22 06:26:08;;;;;;;0.20;0.20;;;;;;;10.92;100.00;99824.34;5112527;28;20024;-42
2023/09/22 06:28:33;;;;;;;0.20;0.20;;;;;;;10.96;100.00;99838.97;5112843;28;20020;-43
2023/09/22 06:31:00;;;;;;;0.20;0.20;;;;;;;10.98;100.00;99834.72;5113427;28;20166;-46
2023/09/22 06:33:27;;;;;;;0.20;0.20;;;;;;;11.03;100.00;99838.22;5112226;28;20024;-43
2023/09/22 06:36:02;;;;;;;0.20;0.20;;;;;;;11.07;100.00;99842.56;5113304;28;20094;-43
2023/09/22 06:38:29;;;;;;;0.20;0.20;;;;;;;11.14;100.00;99843.47;5111986;28;20024;-46
2023/09/22 06:40:55;;;;;;;0.10;0.10;;;;;;;11.18;100.00;99840.97;5113081;28;20020;-43
2023/09/22 06:43:24;;;;;;;0.20;0.20;;;;;;;11.24;100.00;99840.16;5112625;28;20016;-44
2023/09/22 06:45:53;;;;;;;0.20;0.20;;;;;;;11.27;100.00;99839.31;5112421;28;20051;-43
2023/09/22 06:48:22;;;;;;;0.20;0.20;;;;;;;11.33;100.00;99839.41;5112947;28;20028;-41
2023/09/22 06:50:51;;;;;;;0.20;0.20;;;;;;;11.38;100.00;99850.63;5113054;28;20032;-47
2023/09/22 06:53:16;;;;;;;0.20;0.20;;;;;;;11.46;100.00;99855.88;5111928;28;20024;-43
2023/09/22 06:55:41;;;;;;;0.20;0.20;;;;;;;11.48;100.00;99855.03;5112735;28;20069;-46
2023/09/22 06:58:07;;;;;;;0.17;0.17;;;;;;;11.59;100.00;99856.84;5113006;28;20035;-44
2023/09/22 07:00:32;;;;;;;0.20;0.20;;;;;;;11.62;100.00;99862.91;5111969;28;20387;-45
2023/09/22 07:02:57;;;;;;;0.20;0.20;;;;;;;11.68;100.00;99857.81;5113096;28;20023;-43
2023/09/22 07:05:23;;;;;;;0.20;0.20;;;;;;;11.77;100.00;99864.75;5112453;28;20370;-46
2023/09/22 07:07:52;;;;;;;0.10;0.10;;;;;;;11.82;100.00;99857.91;5111916;28;20459;-45
2023/09/22 07:10:18;;;;;;;0.10;0.10;;;;;;;11.86;100.00;99862.28;5112291;28;20028;-41
2023/09/22 07:12:44;;;;;;;0.15;0.15;;;;;;;11.92;100.00;99863.19;5112672;28;20459;-42
2023/09/22 07:15:10;;;;;;;0.20;0.20;;;;;;;11.99;100.00;99871.03;5112159;28;20035;-43
2023/09/22 07:17:36;;;;;;;0.20;0.20;;;;;;;12.05;100.00;99871.91;5112600;28;20034;-45
2023/09/22 07:20:04;;;;;;;0.10;0.10;;;;;;;12.13;100.00;99871.09;5112897;28;20032;-41
2023/09/22 07:22:30;;;;;;;0.20;0.20;;;;;;;12.16;100.00;99875.41;5111597;28;20034;-42
2023/09/22 07:24:56;;;;;;;0.20;0.20;;;;;;;12.19;100.00;99873.72;5112603;28;20470;-47
2023/09/22 07:27:23;;;;;;;0.20;0.20;;;;;;;12.25;100.00;99879.78;5112497;28;20057;-45
2023/09/22 07:29:50;;;;;;;0.20;0.20;;;;;;;12.28;100.00;99885.00;5111752;28;20489;-44
2023/09/22 07:32:18;;;;;;;0.20;0.20;;;;;;;12.35;100.00;99891.94;5112308;28;20506;-41
2023/09/22 07:34:45;;;;;;;0.20;0.20;;;;;;;12.39;100.00;99892.81;5114139;28;20046;-42
2023/09/22 07:37:13;;;;;;;0.20;0.20;;;;;;;12.43;100.00;99890.25;5116502;28;20027;-45
2023/09/22 07:39:39;;;;;;;0.20;0.20;;;;;;;12.45;100.00;99901.47;5115983;28;20049;-42
2023/09/22 07:42:06;;;;;;;0.10;0.10;;;;;;;12.52;100.00;99911.00;5115413;28;20095;-45
2023/09/22 07:44:31;;;;;;;0.13;0.13;;;;;;;12.60;100.00;99910.16;5115855;28;20023;-45
2023/09/22 07:46:58;;;;;;;0.20;0.20;;;;;;;12.65;100.00;99916.22;5116098;28;20031;-46
2023/09/22 07:49:24;;;;;;;0.20;0.20;;;;;;;12.73;100.00;99922.34;5114958;28;20023;-42
2023/09/22 07:51:50;;;;;;;0.20;0.20;;;;;;;12.85;100.00;99924.97;5115691;28;20119;-44
2023/09/22 07:54:16;;;;;;;0.20;0.20;;;;;;;12.94;100.00;99920.72;5115780;28;20099;-41
2023/09/22 07:56:41;;;;;;;0.20;0.20;;;;;;;13.04;100.00;99916.44;5115064;28;20116;-41
2023/09/22 07:59:06;;;;;;;0.10;0.10;;;;;;;13.07;100.00;99926.81;5115695;28;20059;-44
2023/09/22 08:01:31;;;;;;;0.10;0.10;;;;;;;13.10;100.00;99925.09;5115492;28;20043;-45
2023/09/22 08:03:57;;;;;;;0.10;0.10;;;;;;;13.10;100.00;99922.50;5115015;28;20110;-45
2023/09/22 08:06:23;;;;;;;0.10;0.10;;;;;;;13.11;100.00;99931.16;5115442;28;20034;-42
2023/09/22 08:08:49;;;;;;;0.20;0.20;;;;;;;13.16;100.00;99935.47;5115909;28;20090;-43
2023/09/22 08:11:17;;;;;;;0.10;0.10;;;;;;;13.22;100.00;99933.75;5114792;28;20028;-43
2023/09/22 08:13:42;;;;;;;;;;;;;;;13.33;100.00;99947.63;5115977;28;20024;-44
2023/09/22 08:16:07;;;;;;;0.10;0.10;;;;;;;13.41;100.00;99935.59;5115395;28;19911;-45
2023/09/22 08:18:37;;;;;;;0.10;0.10;;;;;;;13.59;100.00;99946.88;5114254;28;20489;-42
2023/09/22 08:21:04;;;;;;;0.15;0.15;;;;;;;13.69;100.00;99950.38;5115411;28;20024;-42
2023/09/22 08:23:30;;;;;;;0.15;0.15;;;;;;;13.69;100.00;99951.22;5115225;28;20058;-44
2023/09/22 08:25:56;;;;;;;0.20;0.20;;;;;;;13.65;100.00;99949.47;5114609;28;20455;-46
2023/09/22 08:28:22;;;;;;;0.13;0.13;;;;;;;13.59;100.00;99955.50;5115052;28;20042;-46
2023/09/22 08:30:48;;;;;;;0.10;0.10;;;;;;;13.42;100.00;99950.25;5114379;28;20031;-44
2023/09/22 08:33:13;;;;;;;0.10;0.10;;;;;;;13.31;100.00;99950.22;5114855;28;20027;-45
2023/09/22 08:35:40;;;;;;;0.10;0.10;;;;;;;13.25;100.00;99949.31;5115142;28;20567;-46
2023/09/22 08:38:05;;;;;;;0.10;0.10;;;;;;;13.17;100.00;99952.72;5114280;28;20114;-46
2023/09/22 08:40:31;;;;;;;0.17;0.17;;;;;;;13.13;100.00;99961.34;5114707;28;20482;-44
2023/09/22 08:42:57;;;;;;;0.10;0.10;;;;;;;13.11;100.00;99957.00;5115050;28;20077;-44
2023/09/22 08:45:23;;;;;;;0.10;0.10;;;;;;;13.13;100.00;99956.16;5113236;28;20569;-44
2023/09/22 08:47:49;;;;;;;0.10;0.10;;;;;;;13.41;100.00;99963.22;5114871;28;20035;-45
2023/09/22 08:50:17;;;;;;;0.20;0.20;;;;;;;13.59;100.00;99975.34;5114354;28;20505;-46
2023/09/22 08:52:43;;;;;;;;;;;;;;;13.73;100.00;99962.44;5114509;28;20035;-44
2023/09/22 08:55:16;;;;;;;0.10;0.10;;;;;;;13.95;100.00;99963.34;5114930;28;19916;-47
2023/09/22 08:57:44;;;;;;;0.10;0.10;;;;;;;13.99;100.00;99965.97;5114590;28;20053;-45
2023/09/22 09:00:13;;;;;;;;;;;;;;;14.15;100.00;99966.81;5114150;28;20027;-45
2023/09/22 09:02:39;;;;;;;0.10;0.10;;;;;;;13.98;100.00;99968.53;5114565;28;20007;-44
2023/09/22 09:05:27;;;;;;;0.20;0.20;;;;;;;13.95;100.00;99978.91;5114434;28;20047;-42
2023/09/22 09:07:53;;;;;;;0.10;0.10;;;;;;;13.74;100.00;99975.41;5113805;28;20034;-43
2023/09/22 09:10:26;;;;;;;0.20;0.20;;;;;;;13.59;100.00;99980.53;5114244;28;20023;-45
2023/09/22 09:12:51;;;;;;;0.10;0.10;;;;;;;13.49;100.00;99983.09;5114352;28;20027;-44
2023/09/22 09:15:16;;;;;;;0.10;0.10;;;;;;;13.38;100.00;99977.00;5113186;28;20024;-46
2023/09/22 09:17:42;;;;;;;0.10;0.10;;;;;;;13.42;100.00;99989.09;5114566;28;20024;-43
2023/09/22 09:20:08;;;;;;;0.10;0.10;;;;;;;13.96;100.00;99981.47;5113522;28;20106;-46
2023/09/22 09:22:38;;;;;;;0.20;0.20;;;;;;;14.32;100.00;99984.13;5113970;28;20019;-47
2023/09/22 09:25:12;;;;;;;0.20;0.20;;;;;;;14.88;100.00;99976.31;5114011;28;20085;-46
2023/09/22 09:27:39;;;;;;;0.10;0.10;;;;;;;15.25;100.00;99979.66;5113454;28;20530;-45
2023/09/22 09:30:08;;;;;;;0.10;0.10;;;;;;;15.48;100.00;99974.38;5114000;28;20020;-44
2023/09/22 09:32:33;;;;;;;0.10;0.10;;;;;;;15.57;98.63;99986.47;5113869;28;20055;-46
2023/09/22 09:34:59;;;;;;;0.10;0.10;;;;;;;15.82;94.23;99982.91;5113172;28;20053;-45
2023/09/22 09:37:24;;;;;;;0.10;0.10;;;;;;;15.53;94.20;99991.66;5113557;28;20364;-45
2023/09/22 09:39:57;;;;;;;0.10;0.10;;;;;;;15.28;94.20;99990.03;5113781;28;20028;-45
2023/09/22 09:42:24;;;;;;;0.20;0.20;;;;;;;15.67;92.13;99986.41;5112643;28;20023;-43
2023/09/22 09:44:54;;;;;;;0.10;0.10;;;;;;;16.40;90.66;99989.44;5114043;28;20043;-47
2023/09/22 09:47:26;;;;;;;0.10;0.10;;;;;;;16.76;85.95;99993.44;5113601;28;20024;-46
2023/09/22 09:49:55;;;;;;;0.10;0.10;;;;;;;17.13;82.83;99996.56;5112756;28;20034;-45
2023/09/22 09:52:35;;;;;;;0.10;0.10;;;;;;;17.42;84.71;99994.50;5113428;28;20039;-42
2023/09/22 09:55:08;;;;;;;0.10;0.10;;;;;;;18.04;81.37;100009.34;5113656;28;20039;-45
2023/09/22 09:57:38;;;;;;;0.10;0.10;;;;;;;17.72;77.50;100007.16;5111847;28;20088;-47
2023/09/22 10:00:12;;;;;;;0.10;0.10;;;;;;;17.09;78.40;100001.81;5113653;28;20035;-46
2023/09/22 10:02:41;;;;;;;0.00;0.00;;;;;;;17.08;83.34;100007.91;5113086;28;20031;-43
2023/09/22 10:05:08;;;;;;;0.10;0.10;;;;;;;16.79;82.13;99997.75;5113404;28;20050;-43
2023/09/22 10:07:36;;;;;;;0.10;0.10;;;;;;;16.85;84.96;100004.63;5113130;28;20024;-45
2023/09/22 10:10:03;;;;;;;0.10;0.10;;;;;;;16.95;80.06;99994.16;5112748;28;20062;-45
2023/09/22 10:12:30;;;;;;;0.10;0.10;;;;;;;17.24;82.45;99990.34;5113039;28;20576;-44
2023/09/22 10:15:01;;;;;;;0.10;0.10;;;;;;;17.70;79.78;99982.84;5113344;28;20379;-46
2023/09/22 10:17:27;;;;;;;0.10;0.10;;;;;;;18.43;78.79;99980.03;5112225;28;20471;-42
2023/09/22 10:19:52;;;;;;;0.00;0.00;;;;;;;19.32;70.32;99989.75;5113138;28;20031;-44
2023/09/22 10:22:18;;;;;;;0.00;0.00;;;;;;;19.48;67.03;99987.69;5113127;28;20031;-47
2023/09/22 10:24:43;;;;;;;0.00;0.00;;;;;;;19.33;67.61;99992.34;5112581;28;20019;-44
2023/09/22 10:27:14;;;;;;;0.00;0.00;;;;;;;18.86;71.04;99994.97;5113058;28;20018;-47
2023/09/22 10:29:52;;;;;;;0.00;0.00;;;;;;;18.56;74.24;99988.53;5113220;28;20031;-42
2023/09/22 10:32:17;;;;;;;0.00;0.00;;;;;;;18.29;72.50;99993.31;5112053;28;20027;-44
2023/09/22 10:34:56;;;;;;;0.00;0.00;;;;;;;17.84;73.66;99987.88;5113075;28;20023;-44
2023/09/22 10:37:23;;;;;;;0.10;0.10;;;;;;;17.27;75.69;99994.66;5112516;28;20490;-43
2023/09/22 10:39:52;;;;;;;0.00;0.00;;;;;;;16.84;75.80;99988.16;5113177;28;20110;-46
2023/09/22 10:42:18;;;;;;;0.10;0.10;;;;;;;16.40;79.07;99994.63;5112768;28;20027;-44
2023/09/22 10:44:58;;;;;;;0.10;0.10;;;;;;;16.21;83.74;99991.31;5112223;28;20024;-44
2023/09/22 10:47:45;;;;;;;0.10;0.10;;;;;;;15.88;84.25;99983.75;5112672;28;20471;-46
2023/09/22 10:50:13;;;;;;;0.10;0.10;;;;;;;15.86;84.08;99987.22;5102156;28;20040;-43
2023/09/22 10:52:39;;;;;;;0.10;0.10;;;;;;;15.72;84.93;99987.25;5112309;28;20027;-46
2023/09/22 10:55:05;;;;;;;0.00;0.00;;;;;;;15.64;86.68;99987.28;5112878;28;20020;-46
2023/09/22 10:57:31;;;;;;;0.10;0.10;;;;;;;15.59;84.78;99973.47;5112509;28;20044;-46
2023/09/22 10:59:56;;;;;;;0.10;0.10;;;;;;;15.96;82.42;99983.69;5112268;28;20030;-47
2023/09/22 11:02:26;;;;;;;0.10;0.10;;;;;;;17.01;81.71;99995.81;5112709;28;20047;-43
2023/09/22 11:04:52;;;;;;;0.10;0.10;;;;;;;17.75;71.46;99986.25;5112995;28;20027;-45
2023/09/22 11:07:33;;;;;;;0.00;0.00;;;;;;;17.68;73.74;100001.09;5112154;28;20106;-45
2023/09/22 11:09:59;;;;;;;0.10;0.10;;;;;;;17.73;71.91;99990.63;5116628;28;20032;-43
2023/09/22 11:12:26;;;;;;;0.10;0.10;;;;;;;18.22;71.42;99991.69;5116562;28;20031;-47
2023/09/22 11:14:53;;;;;;;0.00;0.00;;;;;;;19.17;66.81;99994.41;5115867;28;20027;-44
2023/09/22 11:17:18;;;;;;;0.00;0.00;;;;;;;19.53;63.73;99993.69;5116378;28;20015;-46
2023/09/22 11:19:54;;;;;;;0.10;0.10;;;;;;;19.94;61.36;99999.78;5115571;28;20038;-47
2023/09/22 11:22:20;;;;;;;0.00;0.00;;;;;;;20.42;57.93;100003.03;5116125;28;20031;-43
2023/09/22 11:24:46;;;;;;;0.00;0.00;;;;;;;20.30;55.43;100005.06;5116778;28;20028;-45